Time;durP1;ratioP1;P1;durP2;ratioP2;P2;SDS_P1;SDS_P2;PMS_P1;PMS_P2;Temp;Humidity;BMP_temperature;BMP_pressure;BME280_temperature;BME280_humidity;BME280_pressure;Samples;Min_cycle;Max_cycle;Signal;HPM_P1;HPM_P2
2021/12/11 00:00:16;;;;;;;46.78;26.95;;;-1.20;99.90;;;;;;2133138;67;20330;-75
2021/12/11 00:03:15;;;;;;;49.30;29.70;;;-1.10;99.90;;;;;;2128146;67;20798;-76
2021/12/11 00:06:04;;;;;;;48.13;28.67;;;-1.10;99.90;;;;;;2135101;67;20186;-74
2021/12/11 00:08:52;;;;;;;49.17;30.13;;;-1.10;99.90;;;;;;2140301;66;20285;-75
2021/12/11 00:11:41;;;;;;;59.83;32.35;;;-1.10;99.90;;;;;;2127520;67;20426;-76
2021/12/11 00:14:28;;;;;;;53.00;30.95;;;-1.10;99.90;;;;;;2133034;67;20331;-76
2021/12/11 00:17:21;;;;;;;59.78;31.77;;;-1.10;99.90;;;;;;2130397;67;20274;-76
2021/12/11 00:20:29;;;;;;;48.70;29.88;;;-1.10;99.90;;;;;;2125425;67;20554;-76
2021/12/11 00:23:17;;;;;;;54.55;32.80;;;-1.20;99.90;;;;;;2134959;67;20400;-75
2021/12/11 00:25:58;;;;;;;48.97;29.63;;;-1.20;99.90;;;;;;2138773;66;20372;-76
2021/12/11 00:28:46;;;;;;;63.33;35.08;;;-1.20;99.90;;;;;;2132111;67;20222;-75
2021/12/11 00:31:30;;;;;;;53.15;31.80;;;-1.20;99.90;;;;;;2134856;67;20255;-75
2021/12/11 00:34:13;;;;;;;52.97;31.85;;;-1.30;99.90;;;;;;2127437;67;20181;-76
2021/12/11 00:36:58;;;;;;;53.17;29.50;;;-1.30;99.90;;;;;;2139007;66;20394;-75
2021/12/11 00:39:50;;;;;;;48.38;26.88;;;-1.30;99.90;;;;;;2151377;66;20318;-75
2021/12/11 00:42:34;;;;;;;50.88;28.95;;;-1.30;99.90;;;;;;2146434;66;20479;-75
2021/12/11 00:45:22;;;;;;;48.83;28.10;;;-1.30;99.90;;;;;;2141067;66;20337;-76
2021/12/11 00:48:13;;;;;;;54.33;30.95;;;-1.20;99.90;;;;;;2129534;67;20206;-76
2021/12/11 00:51:11;;;;;;;58.05;33.75;;;-1.40;99.90;;;;;;2139823;67;20204;-75
2021/12/11 00:53:59;;;;;;;58.38;32.45;;;-1.40;99.90;;;;;;2149413;66;20350;-75
2021/12/11 00:56:46;;;;;;;47.33;27.95;;;-1.50;99.90;;;;;;2139292;66;20350;-75
2021/12/11 00:59:28;;;;;;;48.47;29.25;;;-1.50;99.90;;;;;;2139740;67;20186;-76
2021/12/11 01:02:12;;;;;;;43.40;27.30;;;-1.50;99.90;;;;;;2126755;67;20352;-75
2021/12/11 01:04:56;;;;;;;45.15;27.30;;;-1.50;99.90;;;;;;2130069;67;20349;-75
2021/12/11 01:07:39;;;;;;;46.38;27.08;;;-1.50;99.90;;;;;;2132420;67;20222;-75
2021/12/11 01:10:25;;;;;;;51.03;27.55;;;-1.60;99.90;;;;;;2140290;66;20198;-75
2021/12/11 01:13:14;;;;;;;46.60;25.92;;;-1.60;99.90;;;;;;2139686;67;20356;-75
2021/12/11 01:16:05;;;;;;;41.75;24.77;;;-1.60;99.90;;;;;;2142525;66;20186;-76
2021/12/11 01:18:58;;;;;;;50.13;28.92;;;-1.60;99.90;;;;;;2130439;67;20408;-74
2021/12/11 01:27:15;;;;;;;46.08;24.58;;;-1.70;99.90;;;;;;2146869;66;20359;-75
2021/12/11 01:29:59;;;;;;;47.33;25.63;;;-1.60;99.90;;;;;;2141777;66;20323;-76
2021/12/11 01:32:42;;;;;;;43.83;25.00;;;-1.70;99.90;;;;;;2154290;66;20311;-75
2021/12/11 01:35:24;;;;;;;46.72;26.60;;;-1.70;99.90;;;;;;2162739;66;20204;-74
2021/12/11 01:38:12;;;;;;;47.55;26.00;;;-1.70;99.90;;;;;;2174510;65;20224;-74
2021/12/11 01:40:59;;;;;;;49.80;24.45;;;-1.70;99.90;;;;;;2153956;66;20178;-75
2021/12/11 01:43:41;;;;;;;49.35;25.42;;;-1.80;99.90;;;;;;2155074;66;20413;-74
2021/12/11 01:46:27;;;;;;;52.58;25.60;;;-1.80;99.90;;;;;;2167727;66;20345;-75
2021/12/11 01:49:21;;;;;;;41.70;24.42;;;-1.70;99.90;;;;;;2165228;66;20237;-75
2021/12/11 01:52:51;;;;;;;45.45;22.92;;;-1.70;99.90;;;;;;2173330;65;20206;-74
2021/12/11 01:56:01;;;;;;;42.50;23.65;;;-1.70;99.90;;;;;;2169019;65;20360;-75
2021/12/11 01:58:59;;;;;;;42.10;22.88;;;-1.60;99.90;;;;;;2159504;66;20334;-74
2021/12/11 02:01:51;;;;;;;46.58;24.95;;;-1.60;99.90;;;;;;2158707;66;20306;-75
2021/12/11 02:04:37;;;;;;;35.67;21.40;;;-1.70;99.90;;;;;;2169439;65;20712;-76
2021/12/11 02:07:28;;;;;;;41.88;22.48;;;-1.70;99.90;;;;;;2170008;65;20615;-76
2021/12/11 02:10:18;;;;;;;37.17;21.75;;;-1.70;99.90;;;;;;2164266;65;20282;-76
2021/12/11 02:13:00;;;;;;;40.35;21.83;;;-1.70;99.90;;;;;;2168260;65;20325;-75
2021/12/11 02:15:49;;;;;;;44.08;22.80;;;-1.80;99.90;;;;;;2161376;66;20699;-73
2021/12/11 02:18:43;;;;;;;36.28;22.00;;;-1.80;99.90;;;;;;2131905;66;20754;-74
2021/12/11 02:21:57;;;;;;;40.03;21.60;;;-1.80;99.90;;;;;;2127815;67;20821;-75
2021/12/11 02:24:44;;;;;;;45.83;23.35;;;-1.70;99.90;;;;;;2130528;67;20183;-74
2021/12/11 02:27:38;;;;;;;36.92;21.05;;;-1.70;99.90;;;;;;2122034;67;20176;-74
2021/12/11 02:30:34;;;;;;;43.72;24.20;;;-1.70;99.90;;;;;;2123773;67;20185;-75
2021/12/11 02:33:22;;;;;;;44.95;23.13;;;-1.70;99.90;;;;;;2126209;67;20234;-75
2021/12/11 02:36:17;;;;;;;43.00;23.88;;;-1.80;99.90;;;;;;2132624;67;20399;-75
2021/12/11 02:39:14;;;;;;;42.03;22.35;;;-1.80;99.90;;;;;;2129348;67;20621;-75
2021/12/11 02:42:00;;;;;;;44.88;22.58;;;-1.80;99.90;;;;;;2151425;66;20366;-76
2021/12/11 02:44:57;;;;;;;39.92;22.20;;;-1.80;99.90;;;;;;2160795;66;20327;-75
2021/12/11 02:48:04;;;;;;;37.28;21.45;;;-1.80;99.90;;;;;;2141761;66;20363;-76
2021/12/11 02:51:04;;;;;;;40.75;23.70;;;-1.40;99.90;;;;;;2143109;66;20695;-75
2021/12/11 02:54:24;;;;;;;46.20;25.13;;;-1.60;99.90;;;;;;2155722;66;20322;-75
2021/12/11 02:57:13;;;;;;;51.05;26.40;;;-1.50;99.90;;;;;;2142328;66;20174;-75
2021/12/11 03:00:18;;;;;;;49.38;25.33;;;-1.40;99.90;;;;;;2146250;66;20200;-75
2021/12/11 03:03:06;;;;;;;45.17;25.75;;;-1.40;99.90;;;;;;2145784;66;20225;-75
2021/12/11 03:06:00;;;;;;;49.78;26.23;;;-1.30;99.90;;;;;;2139218;66;20262;-75
2021/12/11 03:08:47;;;;;;;52.35;27.40;;;-1.30;99.90;;;;;;2153485;66;20746;-74
2021/12/11 03:11:31;;;;;;;47.92;26.02;;;-1.30;99.90;;;;;;2139160;67;20271;-75
2021/12/11 03:14:16;;;;;;;45.35;25.17;;;-1.30;99.90;;;;;;2133101;67;20201;-76
2021/12/11 03:16:59;;;;;;;48.97;26.52;;;-0.90;99.90;;;;;;2158917;66;20349;-75
2021/12/11 03:19:45;;;;;;;59.40;29.73;;;-1.20;99.90;;;;;;2139119;66;20214;-75
2021/12/11 03:22:33;;;;;;;58.45;29.40;;;-1.20;99.90;;;;;;2160360;66;20347;-75
2021/12/11 03:25:22;;;;;;;55.60;28.50;;;-1.30;99.90;;;;;;2169734;65;20176;-75
2021/12/11 03:28:04;;;;;;;49.30;25.77;;;-1.30;99.90;;;;;;2181504;65;20239;-75
2021/12/11 03:30:57;;;;;;;47.10;26.88;;;-1.30;99.90;;;;;;2182847;65;20405;-75
2021/12/11 03:33:44;;;;;;;49.08;26.05;;;-1.40;99.90;;;;;;2181160;65;20316;-75
2021/12/11 03:36:32;;;;;;;48.72;26.05;;;-1.50;99.90;;;;;;2175573;65;20291;-76
2021/12/11 03:39:22;;;;;;;47.63;25.50;;;-1.50;99.90;;;;;;2149514;66;20688;-75
2021/12/11 03:42:11;;;;;;;51.63;28.27;;;-1.50;99.90;;;;;;2152810;66;20165;-76
2021/12/11 03:44:52;;;;;;;49.97;26.88;;;-1.50;99.90;;;;;;2137515;66;20685;-75
2021/12/11 03:47:41;;;;;;;53.15;27.83;;;-1.50;99.90;;;;;;2131749;67;20332;-75
2021/12/11 03:50:27;;;;;;;51.47;28.10;;;-1.50;99.90;;;;;;2138747;67;20167;-75
2021/12/11 03:53:10;;;;;;;57.20;28.88;;;-1.50;99.90;;;;;;2141469;66;20363;-74
2021/12/11 03:55:57;;;;;;;59.92;29.45;;;-1.60;99.90;;;;;;2142474;66;20766;-75
2021/12/11 03:58:48;;;;;;;53.13;29.55;;;-1.60;99.90;;;;;;2133948;66;20252;-75
2021/12/11 04:01:37;;;;;;;55.50;30.40;;;-1.40;99.90;;;;;;2143831;66;20233;-75
2021/12/11 04:04:33;;;;;;;48.85;26.50;;;-1.60;99.90;;;;;;2144921;66;20793;-75
2021/12/11 04:07:20;;;;;;;51.67;27.85;;;-1.70;99.90;;;;;;2147561;66;20211;-75
2021/12/11 04:10:11;;;;;;;55.22;27.33;;;-1.70;99.90;;;;;;2150452;66;20276;-75
2021/12/11 04:12:52;;;;;;;52.03;29.17;;;-1.70;99.90;;;;;;2144020;66;20668;-75
2021/12/11 04:15:35;;;;;;;60.22;30.05;;;-1.70;99.90;;;;;;2142676;66;20198;-75
2021/12/11 04:18:18;;;;;;;55.38;29.27;;;-1.60;99.90;;;;;;2125538;67;20231;-75
2021/12/11 04:21:09;;;;;;;49.45;28.30;;;-1.60;99.90;;;;;;2125670;67;20420;-75
2021/12/11 04:23:51;;;;;;;55.58;29.90;;;-1.70;99.90;;;;;;2132448;67;20338;-75
2021/12/11 04:26:35;;;;;;;58.03;29.77;;;-1.70;99.90;;;;;;2118578;67;20789;-75
2021/12/11 04:29:20;;;;;;;54.53;28.95;;;-1.70;99.90;;;;;;2130979;67;20666;-75
2021/12/11 04:32:03;;;;;;;56.35;28.27;;;-1.80;99.90;;;;;;2125783;67;20719;-76
2021/12/11 04:34:46;;;;;;;53.30;29.15;;;-1.80;99.90;;;;;;2118247;67;20225;-75
2021/12/11 04:37:31;;;;;;;55.85;30.77;;;-1.80;99.90;;;;;;2118518;67;20200;-74
2021/12/11 04:40:22;;;;;;;56.70;29.77;;;-1.80;99.90;;;;;;2111844;67;20296;-74
2021/12/11 04:43:12;;;;;;;49.33;28.73;;;-1.80;99.90;;;;;;2120323;67;20314;-74
2021/12/11 04:46:09;;;;;;;59.85;31.50;;;-1.80;99.90;;;;;;2140365;66;20294;-74
2021/12/11 04:49:05;;;;;;;55.97;30.33;;;-1.80;99.90;;;;;;2139921;66;20186;-74
2021/12/11 04:52:03;;;;;;;55.33;30.88;;;-1.80;99.90;;;;;;2142266;66;20179;-74
2021/12/11 05:12:13;;;;;;;54.08;30.00;;;-1.90;99.90;;;;;;2145874;66;20243;-74
2021/12/11 05:14:55;;;;;;;49.35;29.17;;;-1.90;99.90;;;;;;2140600;66;20279;-74
2021/12/11 05:17:39;;;;;;;49.08;28.48;;;-1.90;99.90;;;;;;2129865;67;20325;-74
2021/12/11 05:20:24;;;;;;;51.33;29.08;;;-2.00;99.90;;;;;;2124619;67;20218;-75
2021/12/11 05:23:07;;;;;;;56.70;29.25;;;-2.00;99.90;;;;;;2124979;67;20352;-74
2021/12/11 05:25:48;;;;;;;56.72;28.60;;;-2.00;99.90;;;;;;2127061;67;20758;-75
2021/12/11 05:28:30;;;;;;;51.58;29.23;;;-2.00;99.90;;;;;;2122148;67;20214;-75
2021/12/11 05:31:11;;;;;;;55.83;27.25;;;-2.10;99.90;;;;;;2114636;67;20610;-75
2021/12/11 05:33:52;;;;;;;54.88;28.58;;;-2.10;99.90;;;;;;2120006;67;20254;-75
2021/12/11 05:36:35;;;;;;;56.92;29.23;;;-2.10;99.90;;;;;;2126429;67;20641;-75
2021/12/11 05:39:18;;;;;;;46.65;28.05;;;-1.40;99.90;;;;;;2126788;67;20176;-76
2021/12/11 05:42:01;;;;;;;53.38;28.52;;;-2.10;99.90;;;;;;2138599;66;20303;-75
2021/12/11 05:44:44;;;;;;;50.03;28.85;;;-2.10;99.90;;;;;;2125147;67;20255;-75
2021/12/11 05:47:25;;;;;;;64.80;31.17;;;-2.10;99.90;;;;;;2132238;67;20230;-75
2021/12/11 05:50:11;;;;;;;54.47;28.23;;;-2.10;99.90;;;;;;2118487;67;20442;-74
2021/12/11 05:52:53;;;;;;;56.00;30.77;;;-2.00;99.90;;;;;;2127926;67;20375;-75
2021/12/11 05:55:37;;;;;;;59.72;31.75;;;-2.00;99.90;;;;;;2121282;67;20279;-75
2021/12/11 05:58:36;;;;;;;56.42;29.38;;;-2.00;99.90;;;;;;2143942;66;20297;-74
2021/12/11 06:01:39;;;;;;;49.65;29.77;;;-2.00;99.90;;;;;;2147510;66;20186;-75
2021/12/11 06:04:24;;;;;;;57.38;29.17;;;-2.00;99.90;;;;;;2146606;66;20191;-75
2021/12/11 06:07:10;;;;;;;54.20;27.33;;;-2.10;99.90;;;;;;2139743;67;20339;-75
2021/12/11 06:10:03;;;;;;;60.63;29.55;;;-1.20;99.90;;;;;;2122304;67;20212;-75
2021/12/11 06:12:48;;;;;;;58.60;31.08;;;-2.10;99.90;;;;;;2127294;67;20348;-74
2021/12/11 06:15:30;;;;;;;48.95;29.17;;;-2.00;99.90;;;;;;2123863;67;20348;-75
2021/12/11 06:18:18;;;;;;;51.60;28.15;;;-2.00;99.90;;;;;;2131767;67;20731;-75
2021/12/11 06:21:03;;;;;;;56.60;29.98;;;-2.10;99.90;;;;;;2135636;67;20321;-74
2021/12/11 06:23:46;;;;;;;52.45;28.92;;;-2.00;99.90;;;;;;2150089;66;20266;-74
2021/12/11 06:26:30;;;;;;;57.05;29.45;;;-2.00;99.90;;;;;;2143269;66;20737;-74
2021/12/11 06:29:14;;;;;;;55.65;27.88;;;-2.00;99.90;;;;;;2141116;66;20282;-75
2021/12/11 06:31:58;;;;;;;;;;;-2.00;99.90;;;;;;2146025;66;20716;-75
2021/12/11 06:34:39;;;;;;;53.88;28.95;;;-2.00;99.90;;;;;;2147109;66;20098;-75
2021/12/11 06:37:23;;;;;;;47.95;25.75;;;-2.00;99.90;;;;;;2139211;66;20319;-75
2021/12/11 06:40:09;;;;;;;;;;;-2.00;99.90;;;;;;2141201;66;20298;-75
2021/12/11 06:42:51;;;;;;;59.78;28.95;;;-2.00;99.90;;;;;;2150031;66;20215;-76
2021/12/11 06:45:33;;;;;;;58.83;29.67;;;-2.00;99.90;;;;;;2142490;66;20639;-75
2021/12/11 06:48:16;;;;;;;58.70;28.05;;;-1.90;99.90;;;;;;2146556;66;20306;-75
2021/12/11 06:50:59;;;;;;;54.53;29.70;;;-1.90;99.90;;;;;;2132098;67;20260;-75
2021/12/11 06:53:48;;;;;;;50.85;29.35;;;-1.90;99.90;;;;;;2124880;67;20372;-75
2021/12/11 06:56:31;;;;;;;56.75;28.90;;;-1.90;99.90;;;;;;2132792;66;20160;-72
2021/12/11 06:59:15;;;;;;;58.83;30.02;;;-1.90;99.90;;;;;;2134729;66;20250;-74
2021/12/11 07:01:58;;;;;;;59.63;31.02;;;-1.90;99.90;;;;;;2131769;67;20278;-74
2021/12/11 07:04:43;;;;;;;59.33;31.00;;;-2.00;99.90;;;;;;2138315;67;20318;-75
2021/12/11 07:07:32;;;;;;;58.90;30.27;;;-2.00;99.90;;;;;;2119237;67;20209;-75
2021/12/11 07:10:19;;;;;;;53.00;29.52;;;-2.00;99.90;;;;;;2117101;67;20184;-74
2021/12/11 07:13:02;;;;;;;61.88;33.25;;;-2.10;99.90;;;;;;2124908;67;20336;-74
2021/12/11 07:15:48;;;;;;;60.08;32.42;;;-2.10;99.90;;;;;;2139141;67;20676;-75
2021/12/11 07:18:34;;;;;;;68.45;35.95;;;-2.00;99.90;;;;;;2124651;67;20894;-74
2021/12/11 07:21:17;;;;;;;65.47;32.88;;;-2.10;99.90;;;;;;2125165;67;20295;-74
2021/12/11 07:24:02;;;;;;;64.53;36.47;;;-2.00;99.90;;;;;;2141259;66;20707;-74
2021/12/11 07:26:44;;;;;;;61.17;31.05;;;-2.00;99.90;;;;;;2160873;66;20257;-74
2021/12/11 07:29:26;;;;;;;55.58;31.58;;;-2.00;99.90;;;;;;2152992;66;20224;-74
2021/12/11 07:32:11;;;;;;;59.88;32.90;;;-1.90;99.90;;;;;;2146661;66;20166;-74
2021/12/11 07:34:56;;;;;;;62.95;32.92;;;-1.90;99.90;;;;;;2145259;66;20213;-75
2021/12/11 07:37:39;;;;;;;59.90;31.42;;;-1.90;99.90;;;;;;2137971;67;20423;-76
2021/12/11 07:40:30;;;;;;;63.88;31.90;;;-1.80;99.90;;;;;;2142350;66;20223;-74
2021/12/11 07:43:17;;;;;;;63.55;31.95;;;-1.80;99.90;;;;;;2123428;67;20244;-75
2021/12/11 07:46:00;;;;;;;57.72;30.75;;;-1.80;99.90;;;;;;2119167;67;20379;-75
2021/12/11 07:48:45;;;;;;;57.80;32.35;;;-1.80;99.90;;;;;;2140613;66;20230;-74
2021/12/11 07:51:31;;;;;;;53.35;31.75;;;-1.70;99.90;;;;;;2153600;66;20342;-75
2021/12/11 07:54:12;;;;;;;64.30;33.22;;;-1.70;99.90;;;;;;2147416;66;20332;-74
2021/12/11 07:56:55;;;;;;;65.78;34.40;;;-1.70;99.90;;;;;;2148344;66;20174;-75
2021/12/11 07:59:40;;;;;;;60.55;32.38;;;-1.60;99.90;;;;;;2147330;66;20323;-75
2021/12/11 08:02:23;;;;;;;55.10;31.38;;;-1.60;99.90;;;;;;2145966;66;20237;-74
2021/12/11 08:05:08;;;;;;;62.40;33.40;;;-1.60;99.90;;;;;;2147429;66;20779;-74
2021/12/11 08:07:53;;;;;;;66.00;34.53;;;-1.50;99.90;;;;;;2153485;66;20246;-75
2021/12/11 08:10:36;;;;;;;60.55;32.38;;;-1.50;99.90;;;;;;2149395;66;20173;-75
2021/12/11 08:13:20;;;;;;;;;;;-1.50;99.90;;;;;;2153183;66;20268;-75
2021/12/11 08:16:02;;;;;;;58.97;33.05;;;-1.50;99.90;;;;;;2161729;66;20045;-74
2021/12/11 08:18:44;;;;;;;67.65;34.95;;;-1.40;99.90;;;;;;2146922;66;20725;-76
2021/12/11 08:21:25;;;;;;;62.65;34.05;;;-1.40;99.90;;;;;;2146516;66;20207;-73
2021/12/11 08:24:07;;;;;;;61.90;34.47;;;-1.40;99.90;;;;;;2138072;67;20475;-74
2021/12/11 08:26:51;;;;;;;63.50;33.83;;;-1.00;99.90;;;;;;2140135;67;20198;-74
2021/12/11 08:29:33;;;;;;;65.25;34.53;;;-1.30;99.90;;;;;;2139980;67;20190;-75
2021/12/11 08:32:16;;;;;;;63.20;34.88;;;-1.10;99.90;;;;;;2147591;66;20341;-74
2021/12/11 08:34:58;;;;;;;62.75;33.90;;;-1.30;99.90;;;;;;2146625;66;20709;-76
2021/12/11 08:37:43;;;;;;;60.22;34.72;;;-1.30;99.90;;;;;;2154452;66;20332;-74
2021/12/11 08:40:28;;;;;;;65.45;35.28;;;-1.30;99.90;;;;;;2139697;66;20198;-74
2021/12/11 08:43:15;;;;;;;52.83;33.25;;;-1.20;99.90;;;;;;2146969;66;20166;-73
2021/12/11 08:46:14;;;;;;;65.70;35.25;;;-1.20;99.90;;;;;;2147336;66;20199;-74
2021/12/11 08:49:12;;;;;;;62.35;33.63;;;-1.20;99.90;;;;;;2161587;66;20275;-74
2021/12/11 08:52:32;;;;;;;56.13;32.80;;;-1.10;99.90;;;;;;2152434;66;20816;-74
2021/12/11 08:55:29;;;;;;;56.42;33.33;;;-1.10;99.90;;;;;;2147646;66;20182;-75
2021/12/11 08:58:13;;;;;;;58.63;32.33;;;-1.00;99.90;;;;;;2147100;66;20222;-74
2021/12/11 09:01:27;;;;;;;68.78;35.60;;;-1.00;99.90;;;;;;2150231;66;20225;-74
2021/12/11 09:04:37;;;;;;;58.95;31.48;;;-0.90;99.90;;;;;;2141250;66;20316;-75
2021/12/11 09:07:24;;;;;;;60.92;31.27;;;-0.90;99.90;;;;;;2139719;66;20183;-75
2021/12/11 09:10:31;;;;;;;62.83;31.00;;;-0.80;99.90;;;;;;2161682;66;20331;-74
2021/12/11 09:13:23;;;;;;;59.63;33.58;;;-0.80;99.90;;;;;;2154360;66;20344;-76
2021/12/11 09:16:19;;;;;;;57.28;29.13;;;-0.80;99.90;;;;;;2138445;67;20171;-75
2021/12/11 09:19:12;;;;;;;58.28;32.97;;;-0.70;99.90;;;;;;2139896;67;20226;-74
2021/12/11 09:22:01;;;;;;;64.95;34.05;;;-0.60;99.90;;;;;;2146447;66;20179;-75
2021/12/11 09:24:55;;;;;;;57.00;32.80;;;-0.50;99.90;;;;;;2147083;66;20254;-74
2021/12/11 09:27:40;;;;;;;65.28;36.33;;;-0.40;99.90;;;;;;2144369;66;20764;-74
2021/12/11 09:30:34;;;;;;;55.40;30.73;;;-0.30;99.90;;;;;;2139844;67;20190;-74
2021/12/11 09:33:22;;;;;;;63.10;33.53;;;-0.10;99.90;;;;;;2134400;67;20187;-74
2021/12/11 09:36:15;;;;;;;58.75;30.95;;;0.10;99.90;;;;;;2141795;66;20630;-75
2021/12/11 09:39:08;;;;;;;54.38;30.90;;;0.00;99.90;;;;;;2141700;66;20194;-75
2021/12/11 09:41:50;;;;;;;51.55;31.52;;;0.10;99.90;;;;;;2144989;66;20276;-75
2021/12/11 09:44:37;;;;;;;51.30;29.73;;;0.10;99.90;;;;;;2155230;66;20165;-75
2021/12/11 09:47:28;;;;;;;52.88;30.45;;;0.30;99.90;;;;;;2146222;66;20196;-75
2021/12/11 09:50:16;;;;;;;48.42;30.98;;;0.20;99.90;;;;;;2143277;66;20284;-75
2021/12/11 09:52:59;;;;;;;48.58;28.40;;;0.20;99.90;;;;;;2138530;67;20341;-76
2021/12/11 09:55:41;;;;;;;52.55;29.90;;;0.20;99.90;;;;;;2128354;67;20372;-76
2021/12/11 09:58:27;;;;;;;50.63;28.73;;;0.30;99.90;;;;;;2130763;67;20247;-75
2021/12/11 10:01:23;;;;;;;54.65;30.98;;;0.30;99.90;;;;;;2132203;67;20268;-75
2021/12/11 10:04:17;;;;;;;54.25;28.98;;;0.40;99.90;;;;;;2136834;67;20179;-77
2021/12/11 10:09:55;;;;;;;51.80;29.92;;;0.50;99.90;;;;;;2149242;66;20202;-76
2021/12/11 10:12:43;;;;;;;50.47;29.83;;;0.60;99.90;;;;;;2147117;66;20199;-77
2021/12/11 10:15:47;;;;;;;48.85;28.13;;;0.60;99.90;;;;;;2147705;66;20253;-76
2021/12/11 10:18:30;;;;;;;47.53;27.75;;;0.70;99.90;;;;;;2161269;66;20195;-76
2021/12/11 10:21:17;;;;;;;41.13;24.58;;;0.80;99.90;;;;;;2161520;66;20291;-78
2021/12/11 10:24:03;;;;;;;44.55;27.58;;;0.90;99.90;;;;;;2171561;65;20680;-76
2021/12/11 10:26:44;;;;;;;46.05;27.10;;;0.90;99.90;;;;;;2164880;66;20263;-76
2021/12/11 10:29:28;;;;;;;45.28;26.50;;;1.00;99.90;;;;;;2167913;66;20234;-76
2021/12/11 10:32:21;;;;;;;43.00;24.27;;;1.10;99.90;;;;;;2157251;66;20219;-74
2021/12/11 10:35:15;;;;;;;47.78;25.17;;;1.20;99.90;;;;;;2150390;66;20185;-76
2021/12/11 10:37:56;;;;;;;45.50;26.40;;;1.30;99.90;;;;;;2137296;66;20751;-76
2021/12/11 10:40:42;;;;;;;39.90;23.50;;;1.30;99.90;;;;;;2135502;67;20286;-77
2021/12/11 10:43:28;;;;;;;;;;;1.50;99.90;;;;;;2125961;67;20616;-77
2021/12/11 10:46:11;;;;;;;39.92;24.23;;;1.50;99.90;;;;;;2121387;67;20110;-77
2021/12/11 10:48:53;;;;;;;41.10;24.92;;;1.60;99.90;;;;;;2137300;66;20390;-76
2021/12/11 10:51:43;;;;;;;37.45;23.42;;;1.70;99.90;;;;;;2136923;67;20187;-77
2021/12/11 10:54:26;;;;;;;37.10;22.13;;;1.80;99.90;;;;;;2130875;67;20285;-77
2021/12/11 10:57:09;;;;;;;34.08;21.80;;;2.00;99.90;;;;;;2130129;67;20291;-77
2021/12/11 10:59:56;;;;;;;37.67;23.65;;;2.30;99.90;;;;;;2127222;67;20766;-77
2021/12/11 11:02:40;;;;;;;38.30;22.80;;;2.20;99.90;;;;;;2117776;67;20260;-75
2021/12/11 11:05:27;;;;;;;33.92;21.13;;;2.30;99.90;;;;;;2133152;67;20327;-75
2021/12/11 11:08:10;;;;;;;35.27;19.90;;;2.60;99.90;;;;;;2137188;66;20237;-76
2021/12/11 11:10:56;;;;;;;26.27;17.75;;;3.10;99.90;;;;;;2139008;67;20417;-77
2021/12/11 11:13:41;;;;;;;23.70;16.95;;;3.60;99.90;;;;;;2132110;67;20227;-76
2021/12/11 11:16:24;;;;;;;21.40;15.18;;;4.20;99.90;;;;;;2137953;66;20166;-75
2021/12/11 11:19:08;;;;;;;29.23;17.05;;;4.50;99.90;;;;;;2137998;66;20267;-76
2021/12/11 11:22:01;;;;;;;23.40;16.85;;;5.00;99.90;;;;;;2150903;66;20429;-76
2021/12/11 11:24:57;;;;;;;23.48;15.90;;;4.70;99.90;;;;;;2154614;66;20232;-77
2021/12/11 11:27:40;;;;;;;24.23;17.13;;;4.60;99.90;;;;;;2138542;66;20349;-77
2021/12/11 11:30:28;;;;;;;23.08;15.80;;;4.50;99.90;;;;;;2145752;66;20816;-77
2021/12/11 11:33:11;;;;;;;25.33;16.92;;;4.50;99.90;;;;;;2144836;66;21111;-76
2021/12/11 11:35:53;;;;;;;25.75;16.42;;;4.50;99.90;;;;;;2130032;67;20780;-77
2021/12/11 11:38:41;;;;;;;25.25;16.10;;;4.50;99.90;;;;;;2136885;66;20269;-77
2021/12/11 11:41:33;;;;;;;22.20;15.35;;;4.50;99.90;;;;;;2140812;66;20220;-77
2021/12/11 11:44:15;;;;;;;19.88;14.90;;;4.60;99.90;;;;;;2145279;66;20750;-76
2021/12/11 11:47:00;;;;;;;24.27;15.45;;;4.40;99.90;;;;;;2136136;66;20191;-77
2021/12/11 11:49:42;;;;;;;23.67;15.70;;;4.30;99.90;;;;;;2133338;67;20175;-78
2021/12/11 11:52:26;;;;;;;23.40;15.52;;;4.30;99.90;;;;;;2120943;67;20324;-76
2021/12/11 11:55:30;;;;;;;27.27;15.68;;;4.20;99.90;;;;;;2118895;67;20913;-77
2021/12/11 11:58:12;;;;;;;23.80;15.25;;;4.20;99.90;;;;;;2121683;67;20778;-75
2021/12/11 12:00:59;;;;;;;23.17;15.05;;;4.20;99.90;;;;;;2134010;67;20183;-77
2021/12/11 12:03:41;;;;;;;21.48;14.43;;;4.30;99.90;;;;;;2131548;67;20726;-77
2021/12/11 12:06:25;;;;;;;24.52;15.95;;;4.20;99.90;;;;;;2134660;67;20314;-76
2021/12/11 12:09:11;;;;;;;23.45;15.20;;;4.10;99.90;;;;;;2143940;66;20171;-77
2021/12/11 12:11:53;;;;;;;;;;;4.10;99.90;;;;;;2137031;67;20725;-77
2021/12/11 12:14:36;;;;;;;23.42;14.80;;;4.00;99.90;;;;;;2134520;67;20270;-77
2021/12/11 12:17:21;;;;;;;22.25;15.32;;;3.90;99.90;;;;;;2127651;66;20358;-77
2021/12/11 12:20:09;;;;;;;23.50;15.25;;;3.90;99.90;;;;;;2150673;66;20166;-77
2021/12/11 12:22:53;;;;;;;25.60;15.63;;;3.90;99.90;;;;;;2135128;67;20196;-76
2021/12/11 12:25:41;;;;;;;25.02;15.30;;;3.90;99.90;;;;;;2132743;67;20334;-76
2021/12/11 12:28:26;;;;;;;25.13;15.55;;;4.20;99.90;;;;;;2126430;67;20267;-76
2021/12/11 12:31:32;;;;;;;19.88;14.20;;;4.30;99.90;;;;;;2124928;67;20860;-76
2021/12/11 12:34:15;;;;;;;21.10;13.90;;;4.60;99.90;;;;;;2131513;67;20716;-76
2021/12/11 12:37:00;;;;;;;23.77;14.82;;;4.80;99.90;;;;;;2129775;67;20225;-76
2021/12/11 12:39:48;;;;;;;21.58;13.93;;;4.80;99.90;;;;;;2133101;67;20308;-77
2021/12/11 12:42:36;;;;;;;20.95;14.40;;;4.70;99.90;;;;;;2138045;66;20682;-76
2021/12/11 12:45:33;;;;;;;20.58;15.35;;;4.70;99.90;;;;;;2141395;66;20465;-76
2021/12/11 12:48:18;;;;;;;20.45;14.02;;;4.90;99.90;;;;;;2136108;66;20182;-76
2021/12/11 12:51:04;;;;;;;17.83;13.32;;;5.40;99.90;;;;;;2132032;67;20234;-76
2021/12/11 12:53:47;;;;;;;19.27;13.90;;;5.70;99.90;;;;;;2147073;66;20253;-76
2021/12/11 12:56:32;;;;;;;20.15;12.90;;;5.80;99.90;;;;;;2154779;66;20190;-75
2021/12/11 12:59:26;;;;;;;19.45;13.75;;;5.70;99.90;;;;;;2160288;65;20774;-76
2021/12/11 13:02:11;;;;;;;17.30;13.15;;;5.60;99.90;;;;;;2166365;65;20243;-77
2021/12/11 13:05:10;;;;;;;;;;;5.50;99.90;;;;;;2149762;66;20319;-76
2021/12/11 13:08:10;;;;;;;17.85;12.27;;;5.40;99.90;;;;;;2131243;67;20220;-76
2021/12/11 13:10:57;;;;;;;20.58;13.70;;;5.30;99.90;;;;;;2115933;67;20228;-76
2021/12/11 13:13:41;;;;;;;22.17;13.52;;;5.20;99.90;;;;;;2132146;67;20212;-76
2021/12/11 13:16:30;;;;;;;20.35;13.70;;;5.10;99.90;;;;;;2131272;67;20331;-77
2021/12/11 13:19:20;;;;;;;19.83;13.55;;;5.00;99.90;;;;;;2133435;67;20234;-75
2021/12/11 13:22:16;;;;;;;18.58;14.55;;;4.90;99.90;;;;;;2141752;67;20245;-77
2021/12/11 13:25:09;;;;;;;21.67;13.93;;;4.80;99.90;;;;;;2155038;66;20716;-76
2021/12/11 13:27:55;;;;;;;20.45;15.70;;;4.80;99.90;;;;;;2148371;66;20839;-76
2021/12/11 13:30:47;;;;;;;20.95;13.93;;;4.80;99.90;;;;;;2133666;67;20171;-77
2021/12/11 13:33:28;;;;;;;20.40;13.38;;;4.70;99.90;;;;;;2133042;67;20502;-77
2021/12/11 13:36:12;;;;;;;21.15;15.30;;;4.50;99.90;;;;;;2142331;66;20980;-77
2021/12/11 13:38:55;;;;;;;20.92;14.50;;;4.40;99.90;;;;;;2155943;66;20236;-77
2021/12/11 13:41:46;;;;;;;22.10;14.63;;;4.30;99.90;;;;;;2149643;66;20657;-76
2021/12/11 13:44:31;;;;;;;23.17;14.90;;;4.30;99.90;;;;;;2152290;66;20734;-77
2021/12/11 13:47:34;;;;;;;20.88;14.27;;;4.30;99.90;;;;;;2146837;66;20694;-76
2021/12/11 13:50:40;;;;;;;20.17;14.35;;;4.20;99.90;;;;;;2137643;66;20230;-77
2021/12/11 13:53:23;;;;;;;24.53;15.37;;;4.20;99.90;;;;;;2137524;67;20351;-77
2021/12/11 13:56:09;;;;;;;;;;;4.20;99.90;;;;;;2123472;67;20723;-76
2021/12/11 13:58:58;;;;;;;25.48;15.57;;;4.10;99.90;;;;;;2113488;67;20767;-76
2021/12/11 14:01:42;;;;;;;20.98;14.90;;;4.00;99.90;;;;;;2106855;67;20185;-76
2021/12/11 14:04:32;;;;;;;24.02;15.88;;;4.00;99.90;;;;;;2103557;67;20257;-77
2021/12/11 14:07:19;;;;;;;24.42;15.73;;;4.00;99.90;;;;;;2098761;67;20187;-77
2021/12/11 14:10:03;;;;;;;24.33;15.68;;;3.90;99.90;;;;;;2102651;67;20198;-76
2021/12/11 14:12:42;;;;;;;24.17;15.43;;;3.90;99.90;;;;;;2109842;67;20330;-77
2021/12/11 14:15:20;;;;;;;23.55;15.65;;;3.90;99.90;;;;;;2110153;67;20233;-76
2021/12/11 14:18:11;;;;;;;26.42;16.33;;;3.90;99.90;;;;;;2130058;66;20382;-75
2021/12/11 14:20:48;;;;;;;26.90;15.95;;;3.90;99.90;;;;;;2145972;66;20207;-75
2021/12/11 14:23:27;;;;;;;24.23;15.88;;;3.90;99.90;;;;;;2154351;66;20365;-76
2021/12/11 14:26:06;;;;;;;27.50;14.65;;;3.90;99.90;;;;;;2167686;65;20191;-76
2021/12/11 14:28:42;;;;;;;24.55;15.82;;;3.90;99.90;;;;;;2175395;65;20216;-76
2021/12/11 14:31:20;;;;;;;24.83;16.83;;;3.90;99.90;;;;;;2183436;65;20232;-76
2021/12/11 14:34:10;;;;;;;20.73;15.85;;;3.80;99.90;;;;;;2192804;65;20229;-75
2021/12/11 14:36:46;;;;;;;25.52;16.80;;;4.00;99.90;;;;;;2198574;65;20185;-77
2021/12/11 14:39:36;;;;;;;27.48;16.17;;;3.70;99.90;;;;;;2201528;65;20870;-77
2021/12/11 14:42:28;;;;;;;27.05;16.08;;;3.70;99.90;;;;;;2211401;64;20278;-75